sensor_id;sensor_type;location;lat;lon;timestamp;pressure;altitude;pressure_sealevel;temperature;humidity
6349;BME280;3207;42.648;23.406;2023-05-21T00:16:32;99911.28;;;21.03;nan
6349;BME280;3207;42.648;23.406;2023-05-21T02:36:37;99802.81;;;18.12;nan
6349;BME280;3207;42.648;23.406;2023-05-21T03:15:49;99804.78;;;17.94;nan
6349;BME280;3207;42.648;23.406;2023-05-21T03:18:20;99784.31;;;17.88;nan
6349;BME280;3207;42.648;23.406;2023-05-21T04:04:51;99800.31;;;17.78;nan
6349;BME280;3207;42.648;23.406;2023-05-21T04:24:30;99837.41;;;18.11;nan
6349;BME280;3207;42.648;23.406;2023-05-21T06:51:32;99818.25;;;22.26;nan
6349;BME280;3207;42.648;23.406;2023-05-21T06:56:25;99859.75;;;22.35;nan
6349;BME280;3207;42.648;23.406;2023-05-21T07:45:25;99828.72;;;24.20;nan
6349;BME280;3207;42.648;23.406;2023-05-21T07:47:51;99834.53;;;24.43;nan
6349;BME280;3207;42.648;23.406;2023-05-21T07:50:18;99823.44;;;24.46;nan
6349;BME280;3207;42.648;23.406;2023-05-21T07:52:45;99825.50;;;24.44;nan
6349;BME280;3207;42.648;23.406;2023-05-21T07:57:40;99814.75;;;24.70;nan
6349;BME280;3207;42.648;23.406;2023-05-21T08:00:07;99804.09;;;24.57;nan
6349;BME280;3207;42.648;23.406;2023-05-21T08:02:36;99821.34;;;24.88;nan
6349;BME280;3207;42.648;23.406;2023-05-21T08:05:03;99827.03;;;25.11;nan
6349;BME280;3207;42.648;23.406;2023-05-21T08:07:30;99831.84;;;24.96;nan
6349;BME280;3207;42.648;23.406;2023-05-21T08:09:57;99828.50;;;25.13;nan
6349;BME280;3207;42.648;23.406;2023-05-21T08:12:24;99834.44;;;25.22;nan
6349;BME280;3207;42.648;23.406;2023-05-21T08:14:52;99831.34;;;25.25;nan
6349;BME280;3207;42.648;23.406;2023-05-21T08:17:19;99828.84;;;25.37;nan
6349;BME280;3207;42.648;23.406;2023-05-21T08:19:46;99829.81;;;25.49;nan
6349;BME280;3207;42.648;23.406;2023-05-21T08:22:12;99819.50;;;25.52;nan
6349;BME280;3207;42.648;23.406;2023-05-21T08:24:39;99826.94;;;25.50;nan
6349;BME280;3207;42.648;23.406;2023-05-21T08:27:06;99820.94;;;25.62;nan
6349;BME280;3207;42.648;23.406;2023-05-21T08:29:33;99819.88;;;25.56;nan
6349;BME280;3207;42.648;23.406;2023-05-21T08:32:02;99829.94;;;25.74;nan
6349;BME280;3207;42.648;23.406;2023-05-21T08:34:28;99837.47;;;25.90;nan
6349;BME280;3207;42.648;23.406;2023-05-21T08:36:56;99835.41;;;25.92;nan
6349;BME280;3207;42.648;23.406;2023-05-21T08:39:22;99839.38;;;25.83;nan
6349;BME280;3207;42.648;23.406;2023-05-21T08:41:52;99831.69;;;25.86;nan
6349;BME280;3207;42.648;23.406;2023-05-21T08:44:24;99838.28;;;25.91;nan
6349;BME280;3207;42.648;23.406;2023-05-21T08:46:53;99828.69;;;26.08;nan
6349;BME280;3207;42.648;23.406;2023-05-21T08:49:25;99833.56;;;26.17;nan
6349;BME280;3207;42.648;23.406;2023-05-21T08:52:01;99828.97;;;26.31;nan
6349;BME280;3207;42.648;23.406;2023-05-21T08:54:28;99837.19;;;26.36;nan
6349;BME280;3207;42.648;23.406;2023-05-21T08:56:55;99838.34;;;26.47;nan
6349;BME280;3207;42.648;23.406;2023-05-21T08:59:23;99829.13;;;26.61;nan
6349;BME280;3207;42.648;23.406;2023-05-21T09:01:51;99845.00;;;26.87;nan
6349;BME280;3207;42.648;23.406;2023-05-21T09:04:18;99837.41;;;27.03;nan
6349;BME280;3207;42.648;23.406;2023-05-21T09:06:47;99861.34;;;27.04;nan
6349;BME280;3207;42.648;23.406;2023-05-21T09:09:28;99829.28;;;26.91;nan
6349;BME280;3207;42.648;23.406;2023-05-21T09:11:57;99835.44;;;26.91;nan
6349;BME280;3207;42.648;23.406;2023-05-21T09:14:25;99845.72;;;27.01;nan
6349;BME280;3207;42.648;23.406;2023-05-21T09:16:52;99844.16;;;27.12;nan
6349;BME280;3207;42.648;23.406;2023-05-21T09:19:19;99821.03;;;27.11;nan
6349;BME280;3207;42.648;23.406;2023-05-21T09:21:49;99826.53;;;27.16;nan
6349;BME280;3207;42.648;23.406;2023-05-21T09:24:16;99838.78;;;27.12;nan
6349;BME280;3207;42.648;23.406;2023-05-21T09:29:11;99837.41;;;27.03;nan
6349;BME280;3207;42.648;23.406;2023-05-21T09:31:42;99931.44;;;27.14;nan
6349;BME280;3207;42.648;23.406;2023-05-21T09:34:09;99837.56;;;27.44;nan
6349;BME280;3207;42.648;23.406;2023-05-21T09:36:36;99825.19;;;27.61;nan
6349;BME280;3207;42.648;23.406;2023-05-21T09:39:05;99839.03;;;27.77;nan
6349;BME280;3207;42.648;23.406;2023-05-21T09:41:32;99835.50;;;27.64;nan
6349;BME280;3207;42.648;23.406;2023-05-21T09:44:00;99832.94;;;27.69;nan
6349;BME280;3207;42.648;23.406;2023-05-21T09:49:05;99831.06;;;28.00;nan
6349;BME280;3207;42.648;23.406;2023-05-21T09:51:32;99834.22;;;27.97;nan
6349;BME280;3207;42.648;23.406;2023-05-21T09:53:59;99826.88;;;28.04;nan
6349;BME280;3207;42.648;23.406;2023-05-21T09:56:30;99825.56;;;28.25;nan
6349;BME280;3207;42.648;23.406;2023-05-21T09:58:58;99830.22;;;28.29;nan
6349;BME280;3207;42.648;23.406;2023-05-21T10:01:30;99828.25;;;28.36;nan
6349;BME280;3207;42.648;23.406;2023-05-21T10:04:01;99837.41;;;28.59;nan
6349;BME280;3207;42.648;23.406;2023-05-21T10:06:29;99840.66;;;28.61;nan
6349;BME280;3207;42.648;23.406;2023-05-21T10:11:30;99810.75;;;28.69;nan
6349;BME280;3207;42.648;23.406;2023-05-21T10:14:00;99822.47;;;28.86;nan
6349;BME280;3207;42.648;23.406;2023-05-21T10:16:29;99829.94;;;28.84;nan
6349;BME280;3207;42.648;23.406;2023-05-21T10:18:58;99834.81;;;28.64;nan
6349;BME280;3207;42.648;23.406;2023-05-21T10:21:26;99822.00;;;28.89;nan
6349;BME280;3207;42.648;23.406;2023-05-21T10:23:54;99822.44;;;29.09;nan
6349;BME280;3207;42.648;23.406;2023-05-21T10:26:22;99835.06;;;29.21;nan
6349;BME280;3207;42.648;23.406;2023-05-21T10:28:54;99829.84;;;29.54;nan
6349;BME280;3207;42.648;23.406;2023-05-21T10:31:22;99793.78;;;29.55;nan
6349;BME280;3207;42.648;23.406;2023-05-21T10:33:51;99830.56;;;29.78;nan
6349;BME280;3207;42.648;23.406;2023-05-21T10:36:19;99830.91;;;29.81;nan
6349;BME280;3207;42.648;23.406;2023-05-21T10:38:46;99833.00;;;29.79;nan
6349;BME280;3207;42.648;23.406;2023-05-21T10:41:14;99820.31;;;29.63;nan
6349;BME280;3207;42.648;23.406;2023-05-21T10:43:47;99825.78;;;29.40;nan
6349;BME280;3207;42.648;23.406;2023-05-21T10:46:42;99823.81;;;29.24;nan
6349;BME280;3207;42.648;23.406;2023-05-21T10:49:22;99819.84;;;29.14;nan
6349;BME280;3207;42.648;23.406;2023-05-21T10:51:58;99824.78;;;29.06;nan
6349;BME280;3207;42.648;23.406;2023-05-21T10:54:50;99805.63;;;28.91;nan
6349;BME280;3207;42.648;23.406;2023-05-21T10:57:32;99822.59;;;28.80;nan
6349;BME280;3207;42.648;23.406;2023-05-21T11:00:03;99820.53;;;28.52;nan
6349;BME280;3207;42.648;23.406;2023-05-21T11:02:32;99806.28;;;28.63;nan
6349;BME280;3207;42.648;23.406;2023-05-21T11:05:00;99795.78;;;28.50;nan
6349;BME280;3207;42.648;23.406;2023-05-21T11:07:52;99808.53;;;28.77;nan
6349;BME280;3207;42.648;23.406;2023-05-21T11:10:35;99799.25;;;28.73;nan
6349;BME280;3207;42.648;23.406;2023-05-21T11:13:07;99828.03;;;28.73;nan
6349;BME280;3207;42.648;23.406;2023-05-21T11:16:05;99812.38;;;28.93;nan
6349;BME280;3207;42.648;23.406;2023-05-21T11:18:59;99810.50;;;28.82;nan
6349;BME280;3207;42.648;23.406;2023-05-21T11:21:31;99803.97;;;28.78;nan
6349;BME280;3207;42.648;23.406;2023-05-21T11:24:05;99806.50;;;28.73;nan
6349;BME280;3207;42.648;23.406;2023-05-21T11:26:58;99802.75;;;28.51;nan
6349;BME280;3207;42.648;23.406;2023-05-21T11:29:40;99816.47;;;28.49;nan
6349;BME280;3207;42.648;23.406;2023-05-21T11:32:09;99827.47;;;28.59;nan
6349;BME280;3207;42.648;23.406;2023-05-21T11:34:46;99801.38;;;28.60;nan
6349;BME280;3207;42.648;23.406;2023-05-21T11:37:23;99808.50;;;28.42;nan
6349;BME280;3207;42.648;23.406;2023-05-21T11:39:53;99809.28;;;28.31;nan
6349;BME280;3207;42.648;23.406;2023-05-21T11:42:31;99805.53;;;28.21;nan
6349;BME280;3207;42.648;23.406;2023-05-21T11:44:59;99804.63;;;28.27;nan
6349;BME280;3207;42.648;23.406;2023-05-21T11:47:27;99808.16;;;28.39;nan
6349;BME280;3207;42.648;23.406;2023-05-21T11:49:56;99805.09;;;28.35;nan
6349;BME280;3207;42.648;23.406;2023-05-21T11:52:23;99788.75;;;28.49;nan
6349;BME280;3207;42.648;23.406;2023-05-21T11:54:52;99796.09;;;28.53;nan
6349;BME280;3207;42.648;23.406;2023-05-21T11:57:20;99810.28;;;28.49;nan
6349;BME280;3207;42.648;23.406;2023-05-21T11:59:48;99782.78;;;28.58;nan
6349;BME280;3207;42.648;23.406;2023-05-21T12:02:18;99798.81;;;28.65;nan
6349;BME280;3207;42.648;23.406;2023-05-21T12:04:47;99776.34;;;28.71;nan
6349;BME280;3207;42.648;23.406;2023-05-21T12:07:17;99783.84;;;28.92;nan
6349;BME280;3207;42.648;23.406;2023-05-21T12:09:45;99777.28;;;28.88;nan
6349;BME280;3207;42.648;23.406;2023-05-21T12:12:13;99776.09;;;28.84;nan
6349;BME280;3207;42.648;23.406;2023-05-21T12:14:42;99775.63;;;28.75;nan
6349;BME280;3207;42.648;23.406;2023-05-21T12:17:11;99776.34;;;28.71;nan
6349;BME280;3207;42.648;23.406;2023-05-21T12:19:39;99775.03;;;28.73;nan
6349;BME280;3207;42.648;23.406;2023-05-21T12:22:06;99769.06;;;28.71;nan
6349;BME280;3207;42.648;23.406;2023-05-21T12:24:36;99774.00;;;28.63;nan
6349;BME280;3207;42.648;23.406;2023-05-21T12:27:05;99766.97;;;28.85;nan
6349;BME280;3207;42.648;23.406;2023-05-21T12:29:35;99770.47;;;28.74;nan
6349;BME280;3207;42.648;23.406;2023-05-21T12:32:03;99756.31;;;29.02;nan
6349;BME280;3207;42.648;23.406;2023-05-21T12:34:41;99779.84;;;28.83;nan
6349;BME280;3207;42.648;23.406;2023-05-21T12:37:10;99765.34;;;28.84;nan
6349;BME280;3207;42.648;23.406;2023-05-21T12:39:43;99772.81;;;28.94;nan
6349;BME280;3207;42.648;23.406;2023-05-21T12:42:11;99766.72;;;28.98;nan
6349;BME280;3207;42.648;23.406;2023-05-21T12:44:38;99758.28;;;29.06;nan
6349;BME280;3207;42.648;23.406;2023-05-21T12:47:06;99759.19;;;29.24;nan
6349;BME280;3207;42.648;23.406;2023-05-21T12:49:34;99755.03;;;29.44;nan
6349;BME280;3207;42.648;23.406;2023-05-21T12:52:03;99769.75;;;29.54;nan
6349;BME280;3207;42.648;23.406;2023-05-21T12:54:32;99765.94;;;29.38;nan
6349;BME280;3207;42.648;23.406;2023-05-21T12:57:08;99747.72;;;29.17;nan
6349;BME280;3207;42.648;23.406;2023-05-21T12:59:46;99759.44;;;29.10;nan
6349;BME280;3207;42.648;23.406;2023-05-21T13:02:14;99745.47;;;29.25;nan
6349;BME280;3207;42.648;23.406;2023-05-21T13:04:41;99755.56;;;29.18;nan
6349;BME280;3207;42.648;23.406;2023-05-21T13:07:08;99749.41;;;28.94;nan
6349;BME280;3207;42.648;23.406;2023-05-21T13:09:35;99754.53;;;29.07;nan
6349;BME280;3207;42.648;23.406;2023-05-21T13:12:03;99740.38;;;29.12;nan
6349;BME280;3207;42.648;23.406;2023-05-21T13:14:32;99743.63;;;29.14;nan
6349;BME280;3207;42.648;23.406;2023-05-21T13:16:59;99746.91;;;29.16;nan
6349;BME280;3207;42.648;23.406;2023-05-21T13:19:26;99730.88;;;29.09;nan
6349;BME280;3207;42.648;23.406;2023-05-21T13:24:19;99734.84;;;29.19;nan
6349;BME280;3207;42.648;23.406;2023-05-21T13:26:46;99734.06;;;29.35;nan
6349;BME280;3207;42.648;23.406;2023-05-21T13:29:13;99734.56;;;29.32;nan
6349;BME280;3207;42.648;23.406;2023-05-21T13:31:42;99730.34;;;29.24;nan
6349;BME280;3207;42.648;23.406;2023-05-21T13:34:09;99730.69;;;28.99;nan
6349;BME280;3207;42.648;23.406;2023-05-21T13:36:36;99727.53;;;29.02;nan
6349;BME280;3207;42.648;23.406;2023-05-21T13:39:03;99763.34;;;29.03;nan
6349;BME280;3207;42.648;23.406;2023-05-21T13:41:30;99721.06;;;29.03;nan
6349;BME280;3207;42.648;23.406;2023-05-21T13:43:57;99705.41;;;29.00;nan
6349;BME280;3207;42.648;23.406;2023-05-21T13:46:24;99710.06;;;29.05;nan
6349;BME280;3207;42.648;23.406;2023-05-21T13:48:52;99711.38;;;29.02;nan
6349;BME280;3207;42.648;23.406;2023-05-21T13:51:19;99706.53;;;29.04;nan
6349;BME280;3207;42.648;23.406;2023-05-21T13:53:46;99688.09;;;28.73;nan
6349;BME280;3207;42.648;23.406;2023-05-21T13:56:13;99703.81;;;28.53;nan
6349;BME280;3207;42.648;23.406;2023-05-21T13:58:39;99712.13;;;28.51;nan
6349;BME280;3207;42.648;23.406;2023-05-21T14:01:06;99708.97;;;28.66;nan
6349;BME280;3207;42.648;23.406;2023-05-21T14:03:33;99785.25;;;28.60;nan
6349;BME280;3207;42.648;23.406;2023-05-21T14:06:01;99696.94;;;28.45;nan
6349;BME280;3207;42.648;23.406;2023-05-21T14:08:28;99692.97;;;28.36;nan
6349;BME280;3207;42.648;23.406;2023-05-21T14:10:55;99701.41;;;28.28;nan
6349;BME280;3207;42.648;23.406;2023-05-21T14:13:23;99701.97;;;28.18;nan
6349;BME280;3207;42.648;23.406;2023-05-21T14:15:50;99713.28;;;27.97;nan
6349;BME280;3207;42.648;23.406;2023-05-21T14:18:17;99696.22;;;28.03;nan
6349;BME280;3207;42.648;23.406;2023-05-21T14:20:44;99696.56;;;27.95;nan
6349;BME280;3207;42.648;23.406;2023-05-21T14:23:12;99685.44;;;27.91;nan
6349;BME280;3207;42.648;23.406;2023-05-21T14:25:40;99688.28;;;27.96;nan
6349;BME280;3207;42.648;23.406;2023-05-21T14:30:33;99667.59;;;27.97;nan
6349;BME280;3207;42.648;23.406;2023-05-21T14:33:00;99682.78;;;28.03;nan
6349;BME280;3207;42.648;23.406;2023-05-21T14:35:26;99680.91;;;28.15;nan
6349;BME280;3207;42.648;23.406;2023-05-21T14:37:53;99687.56;;;28.13;nan
6349;BME280;3207;42.648;23.406;2023-05-21T14:40:22;99665.59;;;27.92;nan
6349;BME280;3207;42.648;23.406;2023-05-21T14:42:48;99676.56;;;27.79;nan
6349;BME280;3207;42.648;23.406;2023-05-21T14:45:16;99649.81;;;27.73;nan
6349;BME280;3207;42.648;23.406;2023-05-21T14:47:43;99689.50;;;27.71;nan
6349;BME280;3207;42.648;23.406;2023-05-21T14:50:12;99699.81;;;27.74;nan
6349;BME280;3207;42.648;23.406;2023-05-21T14:52:39;99679.41;;;27.54;nan
6349;BME280;3207;42.648;23.406;2023-05-21T14:55:07;99682.41;;;27.46;nan
6349;BME280;3207;42.648;23.406;2023-05-21T14:57:36;99676.56;;;27.49;nan
6349;BME280;3207;42.648;23.406;2023-05-21T15:00:03;99679.63;;;27.53;nan
6349;BME280;3207;42.648;23.406;2023-05-21T15:07:23;99673.59;;;27.57;nan
6349;BME280;3207;42.648;23.406;2023-05-21T15:09:50;99689.25;;;27.60;nan
6349;BME280;3207;42.648;23.406;2023-05-21T15:12:17;99687.31;;;27.49;nan
6349;BME280;3207;42.648;23.406;2023-05-21T15:14:46;99674.69;;;27.38;nan
6349;BME280;3207;42.648;23.406;2023-05-21T15:17:13;99675.75;;;27.49;nan
6349;BME280;3207;42.648;23.406;2023-05-21T15:19:40;99682.38;;;27.64;nan
6349;BME280;3207;42.648;23.406;2023-05-21T15:22:06;99682.94;;;27.66;nan
6349;BME280;3207;42.648;23.406;2023-05-21T15:24:33;99674.19;;;27.59;nan
6349;BME280;3207;42.648;23.406;2023-05-21T15:27:00;99678.97;;;27.57;nan
6349;BME280;3207;42.648;23.406;2023-05-21T15:29:27;99680.50;;;27.65;nan
6349;BME280;3207;42.648;23.406;2023-05-21T15:31:56;99686.34;;;27.62;nan
6349;BME280;3207;42.648;23.406;2023-05-21T15:34:22;99681.06;;;27.55;nan
6349;BME280;3207;42.648;23.406;2023-05-21T15:36:50;99675.09;;;27.53;nan
6349;BME280;3207;42.648;23.406;2023-05-21T15:39:16;99676.88;;;27.59;nan
6349;BME280;3207;42.648;23.406;2023-05-21T15:41:43;99685.16;;;27.58;nan
6349;BME280;3207;42.648;23.406;2023-05-21T15:44:10;99682.09;;;27.54;nan
6349;BME280;3207;42.648;23.406;2023-05-21T15:46:37;99671.88;;;27.33;nan
6349;BME280;3207;42.648;23.406;2023-05-21T15:53:58;99656.84;;;27.14;nan
6349;BME280;3207;42.648;23.406;2023-05-21T15:56:25;99628.56;;;27.00;nan
6349;BME280;3207;42.648;23.406;2023-05-21T15:58:52;99659.53;;;27.14;nan
6349;BME280;3207;42.648;23.406;2023-05-21T16:01:18;99657.22;;;27.17;nan
6349;BME280;3207;42.648;23.406;2023-05-21T16:03:45;99646.03;;;27.20;nan
6349;BME280;3207;42.648;23.406;2023-05-21T16:06:13;99659.56;;;26.95;nan
6349;BME280;3207;42.648;23.406;2023-05-21T16:08:40;99657.50;;;26.98;nan
6349;BME280;3207;42.648;23.406;2023-05-21T16:11:07;99664.50;;;26.99;nan
6349;BME280;3207;42.648;23.406;2023-05-21T16:13:34;99663.72;;;26.91;nan
6349;BME280;3207;42.648;23.406;2023-05-21T16:16:01;99665.88;;;26.83;nan
6349;BME280;3207;42.648;23.406;2023-05-21T16:20:54;99667.56;;;26.66;nan
6349;BME280;3207;42.648;23.406;2023-05-21T16:23:23;99676.13;;;26.56;nan
6349;BME280;3207;42.648;23.406;2023-05-21T16:25:50;99667.31;;;26.49;nan
6349;BME280;3207;42.648;23.406;2023-05-21T16:28:17;99684.81;;;26.51;nan
6349;BME280;3207;42.648;23.406;2023-05-21T16:30:43;99689.53;;;26.38;nan
6349;BME280;3207;42.648;23.406;2023-05-21T16:33:10;99688.41;;;26.20;nan
6349;BME280;3207;42.648;23.406;2023-05-21T16:35:37;99676.25;;;26.18;nan
6349;BME280;3207;42.648;23.406;2023-05-21T16:38:04;99685.94;;;26.19;nan
6349;BME280;3207;42.648;23.406;2023-05-21T16:40:32;99675.22;;;26.19;nan
6349;BME280;3207;42.648;23.406;2023-05-21T16:42:59;99681.88;;;26.16;nan
6349;BME280;3207;42.648;23.406;2023-05-21T16:45:33;99688.03;;;26.17;nan
6349;BME280;3207;42.648;23.406;2023-05-21T16:48:00;99687.22;;;26.16;nan
6349;BME280;3207;42.648;23.406;2023-05-21T16:50:27;99696.31;;;26.15;nan
6349;BME280;3207;42.648;23.406;2023-05-21T16:52:54;99684.69;;;26.21;nan
6349;BME280;3207;42.648;23.406;2023-05-21T16:55:23;99692.63;;;26.10;nan
6349;BME280;3207;42.648;23.406;2023-05-21T16:57:51;99682.09;;;25.90;nan
6349;BME280;3207;42.648;23.406;2023-05-21T17:00:18;99733.25;;;25.82;nan
6349;BME280;3207;42.648;23.406;2023-05-21T17:02:45;99682.78;;;25.79;nan
6349;BME280;3207;42.648;23.406;2023-05-21T17:05:12;99677.56;;;25.91;nan
6349;BME280;3207;42.648;23.406;2023-05-21T17:07:39;99681.66;;;25.93;nan
6349;BME280;3207;42.648;23.406;2023-05-21T17:10:06;99712.69;;;25.76;nan
6349;BME280;3207;42.648;23.406;2023-05-21T17:12:33;99694.13;;;25.81;nan
6349;BME280;3207;42.648;23.406;2023-05-21T17:15:01;99690.84;;;25.79;nan
6349;BME280;3207;42.648;23.406;2023-05-21T17:17:28;99736.22;;;25.74;nan
6349;BME280;3207;42.648;23.406;2023-05-21T17:19:55;99702.91;;;25.63;nan
6349;BME280;3207;42.648;23.406;2023-05-21T17:22:22;99691.38;;;25.63;nan
6349;BME280;3207;42.648;23.406;2023-05-21T17:24:49;99695.47;;;25.65;nan
6349;BME280;3207;42.648;23.406;2023-05-21T17:32:16;99701.25;;;25.56;nan
6349;BME280;3207;42.648;23.406;2023-05-21T17:34:43;99697.63;;;25.43;nan
6349;BME280;3207;42.648;23.406;2023-05-21T17:37:10;99700.16;;;25.38;nan
6349;BME280;3207;42.648;23.406;2023-05-21T17:39:36;99694.84;;;25.25;nan
6349;BME280;3207;42.648;23.406;2023-05-21T17:42:03;99696.25;;;25.34;nan
6349;BME280;3207;42.648;23.406;2023-05-21T17:44:30;99700.63;;;25.22;nan
6349;BME280;3207;42.648;23.406;2023-05-21T17:46:57;99701.09;;;25.19;nan
6349;BME280;3207;42.648;23.406;2023-05-21T17:49:25;99710.72;;;25.27;nan
6349;BME280;3207;42.648;23.406;2023-05-21T17:51:53;99702.38;;;25.10;nan
6349;BME280;3207;42.648;23.406;2023-05-21T17:54:20;99711.78;;;25.12;nan
6349;BME280;3207;42.648;23.406;2023-05-21T17:56:47;99709.28;;;25.24;nan
6349;BME280;3207;42.648;23.406;2023-05-21T17:59:13;99711.59;;;25.14;nan
6349;BME280;3207;42.648;23.406;2023-05-21T18:01:41;99687.97;;;25.04;nan
6349;BME280;3207;42.648;23.406;2023-05-21T18:06:37;99715.13;;;25.08;nan
6349;BME280;3207;42.648;23.406;2023-05-21T18:09:04;99717.22;;;24.93;nan
6349;BME280;3207;42.648;23.406;2023-05-21T18:11:32;99723.41;;;24.87;nan
6349;BME280;3207;42.648;23.406;2023-05-21T18:13:59;99727.94;;;24.93;nan
6349;BME280;3207;42.648;23.406;2023-05-21T18:16:25;99728.34;;;24.83;nan
6349;BME280;3207;42.648;23.406;2023-05-21T18:18:54;99728.38;;;24.76;nan
6349;BME280;3207;42.648;23.406;2023-05-21T18:21:21;99721.34;;;24.82;nan
6349;BME280;3207;42.648;23.406;2023-05-21T18:23:49;99721.94;;;24.91;nan
6349;BME280;3207;42.648;23.406;2023-05-21T18:26:16;99727.94;;;24.93;nan
6349;BME280;3207;42.648;23.406;2023-05-21T18:28:43;99737.44;;;24.75;nan
6349;BME280;3207;42.648;23.406;2023-05-21T18:31:10;99739.47;;;24.73;nan
6349;BME280;3207;42.648;23.406;2023-05-21T18:33:36;99739.06;;;24.70;nan
6349;BME280;3207;42.648;23.406;2023-05-21T18:36:04;99726.72;;;24.69;nan
6349;BME280;3207;42.648;23.406;2023-05-21T18:38:31;99734.56;;;24.64;nan
6349;BME280;3207;42.648;23.406;2023-05-21T18:40:59;99730.88;;;24.65;nan
6349;BME280;3207;42.648;23.406;2023-05-21T18:43:28;99727.63;;;24.56;nan
6349;BME280;3207;42.648;23.406;2023-05-21T18:45:55;99736.25;;;24.52;nan
6349;BME280;3207;42.648;23.406;2023-05-21T18:48:22;99733.78;;;24.37;nan
6349;BME280;3207;42.648;23.406;2023-05-21T18:50:49;99736.69;;;24.29;nan
6349;BME280;3207;42.648;23.406;2023-05-21T18:53:17;99736.47;;;24.37;nan
6349;BME280;3207;42.648;23.406;2023-05-21T18:55:44;99740.38;;;24.28;nan
6349;BME280;3207;42.648;23.406;2023-05-21T18:58:12;99740.38;;;24.28;nan
6349;BME280;3207;42.648;23.406;2023-05-21T19:00:39;99750.88;;;24.23;nan
6349;BME280;3207;42.648;23.406;2023-05-21T19:03:07;99746.97;;;24.25;nan
6349;BME280;3207;42.648;23.406;2023-05-21T19:05:34;99749.41;;;24.20;nan
6349;BME280;3207;42.648;23.406;2023-05-21T19:08:01;99749.81;;;24.17;nan
6349;BME280;3207;42.648;23.406;2023-05-21T19:10:28;99738.72;;;24.14;nan
6349;BME280;3207;42.648;23.406;2023-05-21T19:15:24;99748.16;;;23.96;nan
6349;BME280;3207;42.648;23.406;2023-05-21T19:17:51;99745.69;;;23.88;nan
6349;BME280;3207;42.648;23.406;2023-05-21T19:20:22;99762.94;;;23.86;nan
6349;BME280;3207;42.648;23.406;2023-05-21T19:22:49;99760.88;;;23.81;nan
6349;BME280;3207;42.648;23.406;2023-05-21T19:25:16;99754.28;;;23.77;nan
6349;BME280;3207;42.648;23.406;2023-05-21T19:27:43;99759.00;;;23.75;nan
6349;BME280;3207;42.648;23.406;2023-05-21T19:30:11;99788.81;;;23.72;nan
6349;BME280;3207;42.648;23.406;2023-05-21T19:32:40;99767.84;;;23.62;nan
6349;BME280;3207;42.648;23.406;2023-05-21T19:40:00;99765.38;;;23.61;nan
6349;BME280;3207;42.648;23.406;2023-05-21T19:47:21;99769.44;;;23.63;nan
6349;BME280;3207;42.648;23.406;2023-05-21T19:49:49;99766.19;;;23.68;nan
6349;BME280;3207;42.648;23.406;2023-05-21T19:52:16;99767.44;;;23.72;nan
6349;BME280;3207;42.648;23.406;2023-05-21T19:54:43;99777.91;;;23.67;nan
6349;BME280;3207;42.648;23.406;2023-05-21T19:57:10;99783.44;;;23.65;nan
6349;BME280;3207;42.648;23.406;2023-05-21T19:59:37;99774.31;;;23.47;nan
6349;BME280;3207;42.648;23.406;2023-05-21T20:02:04;99781.75;;;23.51;nan
6349;BME280;3207;42.648;23.406;2023-05-21T20:04:31;99784.16;;;23.46;nan
6349;BME280;3207;42.648;23.406;2023-05-21T20:09:26;99778.00;;;23.46;nan
6349;BME280;3207;42.648;23.406;2023-05-21T20:11:55;99782.94;;;23.49;nan
6349;BME280;3207;42.648;23.406;2023-05-21T20:14:21;99786.97;;;23.31;nan
6349;BME280;3207;42.648;23.406;2023-05-21T20:16:48;99782.47;;;23.32;nan
6349;BME280;3207;42.648;23.406;2023-05-21T20:19:17;99779.59;;;23.33;nan
6349;BME280;3207;42.648;23.406;2023-05-21T20:24:13;99790.69;;;23.30;nan
6349;BME280;3207;42.648;23.406;2023-05-21T20:26:40;99770.56;;;23.28;nan
6349;BME280;3207;42.648;23.406;2023-05-21T20:29:09;99776.91;;;23.27;nan
6349;BME280;3207;42.648;23.406;2023-05-21T20:31:36;99779.16;;;23.23;nan
6349;BME280;3207;42.648;23.406;2023-05-21T20:34:02;99789.19;;;23.21;nan
6349;BME280;3207;42.648;23.406;2023-05-21T20:36:31;99782.44;;;23.25;nan
6349;BME280;3207;42.648;23.406;2023-05-21T20:38:59;99778.38;;;23.29;nan
6349;BME280;3207;42.648;23.406;2023-05-21T20:41:28;99771.34;;;23.22;nan
6349;BME280;3207;42.648;23.406;2023-05-21T20:48:55;99760.19;;;23.05;nan
6349;BME280;3207;42.648;23.406;2023-05-21T20:51:23;99764.31;;;23.08;nan
6349;BME280;3207;42.648;23.406;2023-05-21T20:53:50;99764.34;;;23.14;nan
6349;BME280;3207;42.648;23.406;2023-05-21T20:56:17;99769.69;;;23.14;nan
6349;BME280;3207;42.648;23.406;2023-05-21T20:58:46;99770.06;;;23.11;nan
6349;BME280;3207;42.648;23.406;2023-05-21T21:01:13;99763.81;;;22.91;nan
6349;BME280;3207;42.648;23.406;2023-05-21T21:11:04;99770.03;;;22.98;nan
6349;BME280;3207;42.648;23.406;2023-05-21T21:38:01;99787.16;;;22.89;nan
6349;BME280;3207;42.648;23.406;2023-05-21T21:50:17;99786.03;;;22.98;nan
6349;BME280;3207;42.648;23.406;2023-05-21T22:12:26;99824.44;;;22.76;nan
6349;BME280;3207;42.648;23.406;2023-05-21T22:24:41;99774.09;;;22.38;nan
6349;BME280;3207;42.648;23.406;2023-05-21T22:27:08;99800.81;;;22.45;nan
6349;BME280;3207;42.648;23.406;2023-05-21T23:21:00;99830.06;;;20.86;nan
6349;BME280;3207;42.648;23.406;2023-05-21T23:35:43;99811.13;;;20.52;nan
6349;BME280;3207;42.648;23.406;2023-05-21T23:45:29;99804.75;;;20.61;nan
